Baraboo, WI

5:22 PM CST on November 28, 2014 (GMT -0600)
Baraboo Wisconsin Dells | Change Station
CLOSE
Current Station
Airport
Location: Baraboo,
Elevation: 978 ft
Nearby Weather Stations
Active Advisory: Special Statement

Elev 978 ft 43.52 °N, 89.77 °W | Updated 32 minutes ago

Overcast
Overcast
26 °F
Feels Like 17 °F
N
8
Wind Variable Wind from South

Today
High -- | Low -- °F
--% Chance of Precip.
Yesterday
High -- | Low -- °F
Precip. -- in
7:08 AM 4:25 PM
Waxing Crescent, 45% visible
Pressure 29.89 in
Visibility 5.0 miles
Clouds Mostly Cloudy 6500 ft
Mostly Cloudy 7500 ft
Overcast 10000 ft
Windchill 17 °F
Dew Point 21 °F
Humidity 82%
Rainfall 0.00 in
Snow Depth Not available.
UV 0 out of 12
Pollen .10 out of 12
Air Quality Not available.
Flu Activity Not available.
METAR KDLL 282250Z AUTO 18007KT 5SM UP BKN065 BKN075 OVC100 M03/M06 A2989 RMK AO2 T10351061

More Conditions Fewer Conditions

Pressure 29.89 in
Visibility 5.0 miles
Clouds Mostly Cloudy 6500 ft
Mostly Cloudy 7500 ft
Overcast 10000 ft
Windchill 17 °F
Dew Point 21 °F
Humidity 82%
Rainfall 0.00 in
Snow Depth Not available.
UV 0 out of 12
Pollen .10 out of 12
Air Quality Not available.
Flu Activity Not available.
METAR KDLL 282250Z AUTO 18007KT 5SM UP BKN065 BKN075 OVC100 M03/M06 A2989 RMK AO2 T10351061

More Conditions Fewer Conditions

10-Day Weather Forecast

Almanac

Astronomy

Nov. 28, 2014 Rise Set
Actual Time
Civil Twilight
Nautical Twilight
Astronomical Twilight
Moon
Length of Visible Light
Length of Day
Tomorrow will be .
, % of the Moon is Illuminated

Today's Extremes

State Highs State Lows

Community

WunderPhotos

Upload Photos

1,774,335 photos uploaded!

WunderBlogs® & News

Nearby

Air Quality

  Air Quality AQ Index Pollutant
Not available.

Snow Depth

Station Depth Elevation

Earthquake Activity

City Distance Mag. Time & Date
Minimum magnitude displayed is 2.5.

Coastal Water Temperatures

Place Temperature

Nearby Weather Stations